Terminal Aerodrome Forecast
Issued by NWS

Home | Current Version | Previous Version | Graphics & Text | Print | Product List | Glossary On
Versions: 1 2 3 4 5 6 7 8 9 10 11 12 13 14 15 16 17
000
FTUS43 KBIS 180300 AAB
TAFJMS
TAF AMD
KJMS 180340Z 1804/1824 15005KT P6SM VCTS SCT060CB BKN140
     FM180600 25007KT P6SM BKN070
     FM181500 31013G20KT P6SM VCSH SCT060=

USA.gov is the U.S. government's official web portal to all federal, state and local government web resources and services.